Time;durP1;ratioP1;P1;durP2;ratioP2;P2;SDS_P1;SDS_P2;PMS_P1;PMS_P2;Temp;Humidity;BMP_temperature;BMP_pressure;BME280_temperature;BME280_humidity;BME280_pressure;Samples;Min_cycle;Max_cycle;Signal;HPM_P1;HPM_P2
2022/03/09 00:01:40;;;;;;;19.27;11.43;;;6.20;59.00;;;;;;5067699;28;20191;-69
2022/03/09 00:04:05;;;;;;;20.92;12.57;;;6.20;59.00;;;;;;5069158;28;20197;-68
2022/03/09 00:06:31;;;;;;;20.98;11.80;;;6.20;59.10;;;;;;5073617;28;20270;-71
2022/03/09 00:08:57;;;;;;;18.67;11.85;;;6.20;59.20;;;;;;5073030;28;20198;-71
2022/03/09 00:11:22;;;;;;;23.45;11.40;;;6.20;59.30;;;;;;5067369;28;21454;-71
2022/03/09 00:13:48;;;;;;;19.30;11.30;;;6.10;59.40;;;;;;5069344;28;20317;-67
2022/03/09 00:16:14;;;;;;;23.40;12.02;;;6.10;59.40;;;;;;5068458;28;20175;-69
2022/03/09 00:18:40;;;;;;;17.48;11.35;;;6.10;59.50;;;;;;5066906;28;20206;-68
2022/03/09 00:21:07;;;;;;;20.48;11.20;;;6.10;59.60;;;;;;5071886;28;20181;-69
2022/03/09 00:23:33;;;;;;;18.67;11.65;;;6.00;59.60;;;;;;5073874;28;20598;-68
2022/03/09 00:25:58;;;;;;;18.42;11.43;;;6.00;59.70;;;;;;5067140;28;20270;-70
2022/03/09 00:28:25;;;;;;;18.88;11.45;;;6.00;59.80;;;;;;5062382;28;20339;-71
2022/03/09 00:30:50;;;;;;;19.05;11.75;;;6.00;59.90;;;;;;5068978;28;20255;-69
2022/03/09 00:33:16;;;;;;;20.80;12.02;;;6.00;60.00;;;;;;5081716;28;20174;-70
2022/03/09 00:35:45;;;;;;;19.67;12.30;;;6.00;60.10;;;;;;5069191;28;20194;-69
2022/03/09 00:38:11;;;;;;;18.27;11.50;;;6.00;60.10;;;;;;5077764;28;20206;-69
2022/03/09 00:40:37;;;;;;;20.27;11.27;;;6.00;60.30;;;;;;5071194;28;20302;-68
2022/03/09 00:43:03;;;;;;;23.45;11.90;;;5.90;60.20;;;;;;5068110;28;20313;-70
2022/03/09 00:45:28;;;;;;;19.80;11.65;;;5.90;60.30;;;;;;5070305;28;20679;-69
2022/03/09 00:47:54;;;;;;;19.35;11.68;;;5.90;60.70;;;;;;5068291;28;20191;-69
2022/03/09 00:50:20;;;;;;;18.40;12.07;;;5.90;60.60;;;;;;5066569;28;20186;-70
2022/03/09 00:52:47;;;;;;;17.42;11.45;;;5.90;60.50;;;;;;5049002;28;20701;-70
2022/03/09 00:55:13;;;;;;;19.50;11.82;;;5.90;60.50;;;;;;5052665;28;20217;-69
2022/03/09 00:57:40;;;;;;;20.30;11.65;;;5.80;60.60;;;;;;5071608;28;20215;-69
2022/03/09 01:00:07;;;;;;;22.92;11.80;;;5.90;60.80;;;;;;5074401;28;20189;-71
2022/03/09 01:02:38;;;;;;;17.40;11.07;;;5.80;60.80;;;;;;5050375;28;20228;-70
2022/03/09 01:05:04;;;;;;;18.00;11.77;;;5.80;61.60;;;;;;5065329;28;20186;-70
2022/03/09 01:07:30;;;;;;;17.70;10.63;;;5.80;60.90;;;;;;5048998;28;20186;-68
2022/03/09 01:09:55;;;;;;;20.90;11.93;;;5.80;60.90;;;;;;5067065;28;20576;-68
2022/03/09 01:12:21;;;;;;;19.83;11.68;;;5.80;61.00;;;;;;5072030;28;20259;-68
2022/03/09 01:14:47;;;;;;;20.50;11.52;;;5.70;61.00;;;;;;5052439;28;20178;-70
2022/03/09 01:17:13;;;;;;;20.95;12.30;;;5.70;61.10;;;;;;5054999;28;20214;-68
2022/03/09 01:19:38;;;;;;;16.55;11.32;;;5.70;61.20;;;;;;5075854;28;20875;-69
2022/03/09 01:22:04;;;;;;;20.63;12.30;;;5.60;61.30;;;;;;5062164;28;20197;-70
2022/03/09 01:24:30;;;;;;;20.48;11.95;;;5.60;61.50;;;;;;5076714;28;20680;-69
2022/03/09 01:26:55;;;;;;;17.98;11.20;;;5.60;61.80;;;;;;5071658;28;20255;-68
2022/03/09 01:29:21;;;;;;;22.15;11.25;;;5.60;62.00;;;;;;5071397;28;20197;-69
2022/03/09 01:31:46;;;;;;;20.13;11.63;;;5.60;62.10;;;;;;5075332;28;20308;-68
2022/03/09 01:34:12;;;;;;;20.17;12.30;;;5.50;62.00;;;;;;5083362;28;20239;-69
2022/03/09 01:36:38;;;;;;;20.50;11.77;;;5.50;62.30;;;;;;5068290;28;20599;-69
2022/03/09 01:39:04;;;;;;;21.77;12.25;;;5.50;62.60;;;;;;5054195;28;20231;-70
2022/03/09 01:41:30;;;;;;;18.95;11.55;;;5.50;62.80;;;;;;5070444;28;20179;-66
2022/03/09 01:44:12;;;;;;;19.10;11.93;;;5.40;62.80;;;;;;5077264;28;20217;-67
2022/03/09 01:46:38;;;;;;;23.75;11.45;;;5.40;62.80;;;;;;5072429;28;20641;-68
2022/03/09 01:49:05;;;;;;;20.20;11.15;;;5.40;62.90;;;;;;5074184;28;20727;-67
2022/03/09 01:51:32;;;;;;;18.00;11.35;;;5.40;63.00;;;;;;5047925;28;20200;-67
2022/03/09 01:53:59;;;;;;;22.10;11.55;;;5.30;63.00;;;;;;5077109;28;20191;-68
2022/03/09 01:56:25;;;;;;;19.17;11.55;;;5.30;63.00;;;;;;5053256;28;20578;-67
2022/03/09 01:58:51;;;;;;;19.70;11.52;;;5.20;63.10;;;;;;5056881;28;20214;-68
2022/03/09 02:01:16;;;;;;;20.80;11.32;;;5.20;63.30;;;;;;5070845;28;20175;-69
2022/03/09 02:03:42;;;;;;;17.55;11.18;;;5.20;63.40;;;;;;5070801;28;20595;-68
2022/03/09 02:06:08;;;;;;;20.38;11.45;;;5.20;63.60;;;;;;5069719;28;20591;-68
2022/03/09 02:11:20;;;;;;;20.15;12.25;;;5.20;63.80;;;;;;5050704;28;20191;-66
2022/03/09 02:13:45;;;;;;;22.50;11.55;;;5.10;63.70;;;;;;5076786;28;20214;-69
2022/03/09 02:16:14;;;;;;;23.52;12.25;;;5.10;63.80;;;;;;5052527;28;20254;-66
2022/03/09 02:18:40;;;;;;;18.70;10.60;;;5.10;63.90;;;;;;5071868;28;20293;-67
2022/03/09 02:21:08;;;;;;;22.60;11.93;;;5.10;64.00;;;;;;5054386;28;20682;-67
2022/03/09 02:23:34;;;;;;;18.17;10.80;;;5.10;64.20;;;;;;5083735;28;20181;-66
2022/03/09 02:25:59;;;;;;;19.67;11.30;;;5.10;64.20;;;;;;5075166;28;20702;-66
2022/03/09 02:28:25;;;;;;;18.50;11.70;;;5.00;64.20;;;;;;5073251;28;20270;-66
2022/03/09 02:30:55;;;;;;;23.08;12.07;;;5.00;64.20;;;;;;5076149;28;20178;-67
2022/03/09 02:33:21;;;;;;;19.98;11.57;;;5.00;64.20;;;;;;5083332;28;20269;-66
2022/03/09 02:35:48;;;;;;;22.60;11.75;;;5.00;64.40;;;;;;5070073;28;20265;-66
2022/03/09 02:38:14;;;;;;;28.85;10.93;;;5.00;64.40;;;;;;5053723;28;20284;-69
2022/03/09 02:40:39;;;;;;;19.88;11.40;;;5.00;64.40;;;;;;5085650;28;20220;-68
2022/03/09 02:43:05;;;;;;;20.17;11.68;;;5.00;64.50;;;;;;5076329;28;20225;-70
2022/03/09 02:45:31;;;;;;;19.88;11.15;;;5.00;64.50;;;;;;5056235;28;20182;-70
2022/03/09 02:47:56;;;;;;;21.40;11.13;;;4.90;64.60;;;;;;5070890;28;20183;-68
2022/03/09 02:50:22;;;;;;;21.35;11.38;;;4.90;64.60;;;;;;5073062;28;20189;-70
2022/03/09 02:52:48;;;;;;;24.38;11.38;;;4.90;64.80;;;;;;5075377;28;20300;-69
2022/03/09 02:55:16;;;;;;;23.40;11.82;;;4.80;64.90;;;;;;5066994;28;20611;-70
2022/03/09 02:57:43;;;;;;;18.70;11.55;;;4.80;65.10;;;;;;5066156;28;20240;-70
2022/03/09 03:00:11;;;;;;;19.83;11.00;;;4.80;65.10;;;;;;5069453;28;20183;-66
2022/03/09 03:02:38;;;;;;;22.27;12.05;;;4.80;65.30;;;;;;5074826;28;20186;-65
2022/03/09 03:05:05;;;;;;;21.67;11.75;;;4.80;65.50;;;;;;5050387;28;20269;-65
2022/03/09 03:07:30;;;;;;;20.17;10.93;;;4.70;65.60;;;;;;5075246;28;20198;-67
2022/03/09 03:09:56;;;;;;;20.50;11.20;;;4.70;65.80;;;;;;5068942;28;20187;-66
2022/03/09 03:12:22;;;;;;;19.42;11.30;;;4.70;66.00;;;;;;5070281;28;20578;-67
2022/03/09 03:14:48;;;;;;;18.83;11.25;;;4.70;66.20;;;;;;5075237;28;20178;-68
2022/03/09 03:17:15;;;;;;;21.75;11.63;;;4.60;66.20;;;;;;5077421;28;20203;-68
2022/03/09 03:19:42;;;;;;;17.75;11.40;;;4.60;66.40;;;;;;5077632;28;20180;-67
2022/03/09 03:22:07;;;;;;;18.58;11.25;;;4.60;66.50;;;;;;5079232;28;20627;-66
2022/03/09 03:24:33;;;;;;;20.75;10.80;;;4.60;66.50;;;;;;5068446;28;20178;-67
2022/03/09 03:26:58;;;;;;;19.27;11.10;;;4.60;66.70;;;;;;5071116;28;20632;-67
2022/03/09 03:29:24;;;;;;;17.58;11.35;;;4.60;66.70;;;;;;5055700;28;20185;-66
2022/03/09 03:31:50;;;;;;;20.77;11.13;;;4.60;66.70;;;;;;5071500;28;20253;-66
2022/03/09 03:34:15;;;;;;;16.60;10.38;;;4.60;66.70;;;;;;5075900;28;20185;-68
2022/03/09 03:36:41;;;;;;;23.13;11.32;;;4.60;66.70;;;;;;5073173;28;20182;-69
2022/03/09 03:39:07;;;;;;;19.58;11.13;;;4.60;66.80;;;;;;5076457;28;20666;-72
2022/03/09 03:41:32;;;;;;;17.73;11.35;;;4.60;66.80;;;;;;5052226;28;20281;-71
2022/03/09 03:43:58;;;;;;;15.57;10.48;;;4.60;66.90;;;;;;5068266;28;20638;-69
2022/03/09 03:46:24;;;;;;;20.45;10.27;;;4.60;66.80;;;;;;5051702;28;20195;-68
2022/03/09 03:48:49;;;;;;;15.95;10.13;;;4.60;66.80;;;;;;5073837;28;20565;-71
2022/03/09 03:51:15;;;;;;;19.63;10.82;;;4.60;66.70;;;;;;5083870;28;20231;-69
2022/03/09 03:53:41;;;;;;;21.10;11.05;;;4.70;66.70;;;;;;5067794;28;20647;-70
2022/03/09 03:56:07;;;;;;;22.25;11.00;;;4.70;66.70;;;;;;5072100;28;20186;-71
2022/03/09 03:58:32;;;;;;;18.92;10.18;;;4.70;66.50;;;;;;5068183;28;20249;-70
2022/03/09 04:00:58;;;;;;;29.42;10.93;;;4.70;66.50;;;;;;5054629;28;20198;-70
2022/03/09 04:03:24;;;;;;;18.67;10.27;;;4.70;66.40;;;;;;5068096;28;20243;-70
2022/03/09 04:05:50;;;;;;;24.10;10.93;;;4.70;66.30;;;;;;5058571;28;20271;-70
2022/03/09 04:08:16;;;;;;;22.13;10.73;;;4.70;66.10;;;;;;5067255;28;20186;-70
2022/03/09 04:10:42;;;;;;;17.08;10.93;;;4.70;66.20;;;;;;5071589;28;20192;-69
2022/03/09 04:13:08;;;;;;;18.20;11.48;;;4.60;66.30;;;;;;5050611;28;20195;-70
2022/03/09 04:15:33;;;;;;;20.25;10.93;;;4.60;66.40;;;;;;5081269;28;20523;-72
2022/03/09 04:17:59;;;;;;;19.10;10.50;;;4.50;66.50;;;;;;5076394;28;20844;-70
2022/03/09 04:20:25;;;;;;;20.15;10.88;;;4.50;66.70;;;;;;5041839;28;20183;-70
2022/03/09 04:22:51;;;;;;;23.90;11.20;;;4.50;66.90;;;;;;5075473;28;20187;-70
2022/03/09 04:25:17;;;;;;;22.48;11.30;;;4.50;66.90;;;;;;5066242;28;20183;-71
2022/03/09 04:27:42;;;;;;;20.00;10.50;;;4.50;67.00;;;;;;5039644;28;20608;-69
2022/03/09 04:30:09;;;;;;;18.60;10.60;;;4.50;67.10;;;;;;5064507;28;20190;-70
2022/03/09 04:32:35;;;;;;;18.40;11.13;;;4.40;67.10;;;;;;5054005;28;20293;-70
2022/03/09 04:35:03;;;;;;;19.70;11.35;;;4.40;67.30;;;;;;5050361;28;20231;-70
2022/03/09 04:37:30;;;;;;;18.52;11.20;;;4.30;67.40;;;;;;5070895;28;20220;-71
2022/03/09 04:39:58;;;;;;;17.23;10.95;;;4.30;67.60;;;;;;5074892;28;20193;-70
2022/03/09 04:42:24;;;;;;;19.10;10.73;;;4.30;67.80;;;;;;5076494;28;20203;-66
2022/03/09 04:44:49;;;;;;;19.63;11.10;;;4.20;68.00;;;;;;5067792;28;20191;-67
2022/03/09 04:47:15;;;;;;;18.30;10.05;;;4.20;68.10;;;;;;5049986;28;20206;-68
2022/03/09 04:49:41;;;;;;;20.75;11.43;;;4.20;68.20;;;;;;5066317;28;20278;-68
2022/03/09 04:52:07;;;;;;;24.77;11.35;;;4.20;68.30;;;;;;5079829;28;20183;-68
2022/03/09 04:54:33;;;;;;;18.27;10.98;;;4.10;68.30;;;;;;5067139;28;20190;-68
2022/03/09 04:56:59;;;;;;;19.25;11.25;;;4.10;68.40;;;;;;5048977;28;20190;-68
2022/03/09 04:59:25;;;;;;;18.38;10.85;;;4.10;69.20;;;;;;5067726;28;20228;-67
2022/03/09 05:01:50;;;;;;;18.17;10.93;;;4.10;68.50;;;;;;5054739;28;20192;-68
2022/03/09 05:04:16;;;;;;;18.83;10.43;;;4.10;68.70;;;;;;5069564;28;20217;-68
2022/03/09 05:06:42;;;;;;;17.05;10.57;;;4.10;68.90;;;;;;5065644;28;20187;-69
2022/03/09 05:09:08;;;;;;;17.13;10.52;;;4.10;68.80;;;;;;5057733;28;20178;-69
2022/03/09 05:11:33;;;;;;;16.08;10.07;;;4.10;68.90;;;;;;5074257;28;20228;-70
2022/03/09 05:13:59;;;;;;;17.90;10.35;;;4.10;68.70;;;;;;5074891;28;20647;-69
2022/03/09 05:16:24;;;;;;;19.42;10.88;;;4.10;68.90;;;;;;5067300;28;20639;-68
2022/03/09 05:18:50;;;;;;;15.43;10.43;;;4.10;68.90;;;;;;5066755;28;20210;-69
2022/03/09 05:21:16;;;;;;;17.30;10.63;;;4.10;68.90;;;;;;5072219;28;20193;-68
2022/03/09 05:23:42;;;;;;;23.08;10.88;;;4.10;68.80;;;;;;5067666;28;20203;-70
2022/03/09 05:26:08;;;;;;;17.88;10.38;;;4.10;69.00;;;;;;5064890;28;20178;-71
2022/03/09 05:28:34;;;;;;;17.70;10.13;;;4.10;69.00;;;;;;5052104;28;20189;-70
2022/03/09 05:31:00;;;;;;;17.73;10.27;;;4.10;68.90;;;;;;5065089;28;20280;-69
2022/03/09 05:33:26;;;;;;;22.88;10.35;;;4.10;68.90;;;;;;5053353;28;20186;-70
2022/03/09 05:35:51;;;;;;;19.85;10.18;;;4.10;69.00;;;;;;5070981;28;20560;-70
2022/03/09 05:38:17;;;;;;;18.10;10.40;;;4.10;69.00;;;;;;5071551;28;20210;-71
2022/03/09 05:40:43;;;;;;;20.90;11.15;;;4.10;69.10;;;;;;5079612;28;20240;-71
2022/03/09 05:43:08;;;;;;;17.30;10.45;;;4.10;69.10;;;;;;5068263;28;20187;-71
2022/03/09 05:45:34;;;;;;;24.42;11.23;;;4.10;69.10;;;;;;5070694;28;20243;-71
2022/03/09 05:48:00;;;;;;;18.58;10.35;;;4.10;69.00;;;;;;5072201;28;20193;-71
2022/03/09 05:50:26;;;;;;;17.05;10.63;;;4.10;69.10;;;;;;5073714;28;20667;-69
2022/03/09 05:52:51;;;;;;;19.40;10.70;;;4.00;69.10;;;;;;5069659;28;20179;-73
2022/03/09 05:55:17;;;;;;;18.33;10.68;;;4.00;69.30;;;;;;5072115;28;20194;-72
2022/03/09 05:57:43;;;;;;;20.15;10.75;;;4.00;69.30;;;;;;5068032;28;20213;-72
2022/03/09 06:00:09;;;;;;;16.33;10.30;;;4.00;69.40;;;;;;5052030;28;20186;-69
2022/03/09 06:02:39;;;;;;;19.45;11.55;;;4.00;69.50;;;;;;5070254;28;20174;-68
2022/03/09 06:05:05;;;;;;;20.75;12.13;;;4.00;69.50;;;;;;5060920;28;20565;-68
2022/03/09 06:07:32;;;;;;;22.52;11.18;;;4.00;69.70;;;;;;5054375;28;20195;-68
2022/03/09 06:09:58;;;;;;;18.90;10.82;;;3.90;69.70;;;;;;5071037;28;20183;-69
2022/03/09 06:12:23;;;;;;;18.45;10.32;;;3.90;69.60;;;;;;5074738;28;20193;-68
2022/03/09 06:14:49;;;;;;;22.15;10.90;;;3.90;69.70;;;;;;5082418;28;20236;-68
2022/03/09 06:17:15;;;;;;;21.65;10.93;;;3.80;69.70;;;;;;5063704;28;20185;-68
2022/03/09 06:19:41;;;;;;;19.20;11.00;;;3.80;69.90;;;;;;5079001;28;20584;-67
2022/03/09 06:22:06;;;;;;;17.98;10.90;;;3.80;70.00;;;;;;5060457;28;20182;-68
2022/03/09 06:24:32;;;;;;;20.90;11.65;;;3.80;70.00;;;;;;5072486;28;20179;-68
2022/03/09 06:26:59;;;;;;;19.75;10.85;;;3.70;70.00;;;;;;5060417;28;20323;-68
2022/03/09 06:29:25;;;;;;;19.92;10.85;;;3.70;70.20;;;;;;5082204;28;20666;-68
2022/03/09 06:31:51;;;;;;;19.65;11.18;;;3.70;70.60;;;;;;5051604;28;20702;-67
2022/03/09 06:34:18;;;;;;;20.73;11.48;;;3.70;70.60;;;;;;5071958;28;20181;-69
2022/03/09 06:36:44;;;;;;;22.38;11.35;;;3.70;70.70;;;;;;5048101;28;20247;-69
2022/03/09 06:39:16;;;;;;;17.83;10.52;;;3.70;70.80;;;;;;5049966;28;20595;-68
2022/03/09 06:41:44;;;;;;;20.60;10.60;;;3.60;70.80;;;;;;5072988;28;20407;-68
2022/03/09 06:44:12;;;;;;;21.10;11.23;;;3.60;70.90;;;;;;5068712;28;20204;-68
2022/03/09 06:46:38;;;;;;;22.10;11.43;;;3.60;71.00;;;;;;5083170;28;20205;-69
2022/03/09 06:49:04;;;;;;;20.23;11.35;;;3.60;72.10;;;;;;5057438;28;20300;-68
2022/03/09 06:51:30;;;;;;;18.23;11.50;;;3.60;71.30;;;;;;5051830;28;20281;-69
2022/03/09 06:53:56;;;;;;;18.23;10.77;;;3.60;71.50;;;;;;5055685;28;20187;-67
2022/03/09 06:56:22;;;;;;;21.65;12.07;;;3.50;71.60;;;;;;5073667;28;20267;-68
2022/03/09 06:58:48;;;;;;;18.75;11.70;;;3.50;71.70;;;;;;5073587;28;20210;-68
2022/03/09 07:01:13;;;;;;;19.35;11.35;;;3.60;71.90;;;;;;5074697;28;20190;-67
2022/03/09 07:03:39;;;;;;;21.15;11.07;;;3.60;72.00;;;;;;5058756;28;20555;-68
2022/03/09 07:06:05;;;;;;;18.73;11.02;;;3.60;72.20;;;;;;5062620;28;20186;-68
2022/03/09 07:08:31;;;;;;;29.58;12.43;;;3.60;72.10;;;;;;5079846;28;20194;-67
2022/03/09 07:10:58;;;;;;;19.45;11.27;;;3.60;72.20;;;;;;5075788;28;20194;-66
2022/03/09 07:13:24;;;;;;;23.10;11.50;;;3.60;72.40;;;;;;5081282;28;20542;-65
2022/03/09 07:15:50;;;;;;;24.90;11.55;;;3.60;72.50;;;;;;5057510;28;20182;-67
2022/03/09 07:18:16;;;;;;;20.95;11.00;;;3.60;72.60;;;;;;5084281;28;20217;-68
2022/03/09 07:20:41;;;;;;;21.42;12.02;;;3.70;72.80;;;;;;5052736;28;20240;-69
2022/03/09 07:23:07;;;;;;;21.50;11.65;;;3.70;72.90;;;;;;5068871;28;20263;-69
2022/03/09 07:25:34;;;;;;;22.10;11.48;;;3.80;72.90;;;;;;5074865;28;20270;-69
2022/03/09 07:28:00;;;;;;;19.55;10.93;;;3.80;73.00;;;;;;5071399;28;20174;-68
2022/03/09 07:30:26;;;;;;;21.88;11.50;;;3.80;73.00;;;;;;5050855;28;20215;-67
2022/03/09 07:32:51;;;;;;;22.60;10.48;;;3.90;73.10;;;;;;5069105;28;20311;-69
2022/03/09 07:35:17;;;;;;;18.83;11.40;;;3.90;73.20;;;;;;5072077;28;20193;-67
2022/03/09 07:37:44;;;;;;;22.50;12.15;;;4.00;73.20;;;;;;5077629;28;20261;-69
2022/03/09 07:40:10;;;;;;;23.52;12.23;;;4.00;73.40;;;;;;5069634;28;20264;-69
2022/03/09 07:42:36;;;;;;;18.75;11.18;;;4.10;73.30;;;;;;5068720;28;20277;-68
2022/03/09 07:45:05;;;;;;;23.75;11.82;;;4.10;74.00;;;;;;5057209;28;20272;-69
2022/03/09 07:47:32;;;;;;;22.88;12.38;;;4.20;73.20;;;;;;5080446;28;20179;-69
2022/03/09 07:49:58;;;;;;;21.88;12.20;;;4.20;73.10;;;;;;5059527;28;20182;-69
2022/03/09 07:52:23;;;;;;;17.13;10.68;;;4.20;72.90;;;;;;5068636;28;20201;-66
2022/03/09 07:54:49;;;;;;;24.25;11.00;;;4.30;72.80;;;;;;5070239;28;20179;-68
2022/03/09 07:57:15;;;;;;;23.58;10.65;;;4.30;72.70;;;;;;5052695;28;20183;-68
2022/03/09 07:59:40;;;;;;;17.67;11.32;;;4.40;72.90;;;;;;5065336;28;20186;-68
2022/03/09 08:02:07;;;;;;;20.63;11.75;;;4.50;73.10;;;;;;5068030;28;20572;-68
2022/03/09 08:04:33;;;;;;;20.73;12.27;;;4.50;73.20;;;;;;5069968;28;20256;-69
2022/03/09 08:06:59;;;;;;;22.90;11.77;;;4.60;73.20;;;;;;5076357;28;20611;-67
2022/03/09 08:09:25;;;;;;;21.67;11.05;;;4.70;73.00;;;;;;5077803;28;20171;-67
2022/03/09 08:11:50;;;;;;;24.48;12.30;;;4.70;72.70;;;;;;5057078;28;20190;-67
2022/03/09 08:14:17;;;;;;;22.10;12.25;;;4.80;72.70;;;;;;5058752;28;20641;-67
2022/03/09 08:16:43;;;;;;;25.38;12.27;;;4.90;72.90;;;;;;5074834;28;20282;-68
2022/03/09 08:19:09;;;;;;;24.70;12.85;;;4.90;73.20;;;;;;5068459;28;20670;-67
2022/03/09 08:21:34;;;;;;;25.83;12.45;;;5.10;72.90;;;;;;5071867;28;20182;-68
2022/03/09 08:24:00;;;;;;;20.05;12.45;;;5.10;72.80;;;;;;5069489;28;20213;-68
2022/03/09 08:26:26;;;;;;;22.52;13.23;;;5.20;72.40;;;;;;5072858;28;20227;-69
2022/03/09 08:28:52;;;;;;;21.67;12.98;;;5.30;72.30;;;;;;5074473;28;20195;-69
2022/03/09 08:31:18;;;;;;;24.48;13.10;;;5.40;72.40;;;;;;5056794;28;20297;-68
2022/03/09 08:33:44;;;;;;;25.00;14.18;;;5.60;72.90;;;;;;5075468;28;20412;-68
2022/03/09 08:36:11;;;;;;;22.13;14.37;;;6.60;69.50;;;;;;5063341;28;20418;-69
2022/03/09 08:38:38;;;;;;;22.00;13.75;;;7.90;62.50;;;;;;5043806;28;20202;-68
2022/03/09 08:41:04;;;;;;;22.33;13.25;;;8.50;64.60;;;;;;5049661;28;20254;-67
2022/03/09 08:43:29;;;;;;;18.85;14.13;;;9.20;65.00;;;;;;5067140;28;20454;-67
2022/03/09 08:45:56;;;;;;;21.98;13.60;;;11.50;53.00;;;;;;5074448;28;20481;-67
2022/03/09 08:48:21;;;;;;;20.17;13.10;;;13.30;47.20;;;;;;5071415;28;20796;-66
2022/03/09 08:50:47;;;;;;;19.70;13.40;;;14.70;43.70;;;;;;5066254;28;20415;-69
2022/03/09 08:53:13;;;;;;;20.13;13.77;;;16.20;40.00;;;;;;5064143;28;20417;-66
2022/03/09 08:55:38;;;;;;;21.17;13.32;;;17.50;36.50;;;;;;5067208;28;20423;-68
2022/03/09 08:58:04;;;;;;;19.37;13.43;;;18.60;34.80;;;;;;5053520;28;20421;-67
2022/03/09 09:00:30;;;;;;;21.80;13.20;;;19.80;32.40;;;;;;5065341;28;20406;-67
2022/03/09 09:02:56;;;;;;;19.55;12.90;;;20.80;31.00;;;;;;5048455;28;20424;-67
2022/03/09 09:05:22;;;;;;;16.97;12.67;;;21.60;29.60;;;;;;5067791;28;20400;-67
2022/03/09 09:07:49;;;;;;;21.85;13.63;;;22.40;28.20;;;;;;5065321;28;20416;-68
2022/03/09 09:10:15;;;;;;;19.58;13.27;;;22.80;27.80;;;;;;5066241;28;20656;-67
2022/03/09 09:12:40;;;;;;;19.83;13.23;;;23.40;27.30;;;;;;5047920;28;20423;-67
2022/03/09 09:15:06;;;;;;;17.02;12.85;;;24.00;26.50;;;;;;5051543;28;21169;-67
2022/03/09 09:17:33;;;;;;;17.73;13.00;;;24.60;25.80;;;;;;5037253;28;20416;-67
2022/03/09 09:19:59;;;;;;;18.00;12.88;;;25.30;25.10;;;;;;5048649;28;20411;-67
2022/03/09 09:22:25;;;;;;;19.60;13.48;;;25.70;24.50;;;;;;5048390;28;20399;-68
2022/03/09 09:24:50;;;;;;;16.38;13.15;;;26.00;23.80;;;;;;5064689;28;20413;-69
2022/03/09 09:27:16;;;;;;;18.75;13.73;;;26.30;24.40;;;;;;5075633;28;20428;-68
2022/03/09 09:29:42;;;;;;;20.13;13.07;;;26.50;23.10;;;;;;5067186;28;20411;-68
2022/03/09 09:32:09;;;;;;;18.73;13.05;;;26.40;23.30;;;;;;5065656;28;20548;-70
2022/03/09 09:34:34;;;;;;;21.35;14.38;;;26.40;23.60;;;;;;5067363;28;21866;-68
2022/03/09 09:37:02;;;;;;;20.65;14.35;;;26.50;23.70;;;;;;5076243;28;20413;-68
2022/03/09 09:39:28;;;;;;;20.13;14.20;;;26.70;22.70;;;;;;5067183;28;20425;-69
2022/03/09 09:41:54;;;;;;;23.27;14.38;;;26.60;23.50;;;;;;5066745;28;20411;-70
2022/03/09 09:44:24;;;;;;;23.98;14.10;;;26.60;23.70;;;;;;5066731;28;20415;-69
2022/03/09 09:46:50;;;;;;;20.27;14.52;;;26.60;23.50;;;;;;5070145;28;20913;-67
2022/03/09 09:49:17;;;;;;;23.15;15.20;;;26.40;23.50;;;;;;5065297;28;20430;-71
2022/03/09 09:51:45;;;;;;;19.37;14.30;;;26.30;23.60;;;;;;5067001;28;20439;-72
2022/03/09 09:54:13;;;;;;;20.08;14.48;;;26.30;24.30;;;;;;5075072;28;20422;-67
2022/03/09 09:56:40;;;;;;;21.77;15.07;;;25.60;23.90;;;;;;5061690;28;20776;-67
2022/03/09 09:59:07;;;;;;;21.13;14.90;;;24.50;25.60;;;;;;5067044;28;20412;-69
2022/03/09 10:01:32;;;;;;;25.33;16.25;;;23.30;27.00;;;;;;5064875;28;20410;-66
2022/03/09 10:03:58;;;;;;;23.92;15.32;;;22.30;28.30;;;;;;5053396;28;20414;-70
2022/03/09 10:06:24;;;;;;;26.92;16.10;;;21.50;29.50;;;;;;5071876;28;20442;-70
2022/03/09 10:09:07;;;;;;;24.17;15.87;;;20.90;30.20;;;;;;5048713;28;20404;-67
2022/03/09 10:11:50;;;;;;;23.65;16.45;;;20.40;32.70;;;;;;5050719;28;20469;-69
2022/03/09 10:14:18;;;;;;;26.80;16.60;;;19.80;33.10;;;;;;5069456;28;20461;-69
2022/03/09 10:17:04;;;;;;;23.73;16.00;;;19.20;32.40;;;;;;5077826;28;20501;-67
2022/03/09 10:19:32;;;;;;;33.57;19.67;;;18.50;35.60;;;;;;5068252;28;20442;-67
2022/03/09 10:21:58;;;;;;;31.02;18.50;;;17.90;36.30;;;;;;5058479;28;20418;-70
2022/03/09 10:24:34;;;;;;;31.50;17.65;;;17.50;37.60;;;;;;5074168;28;20186;-70
2022/03/09 10:27:01;;;;;;;28.52;16.65;;;16.80;38.60;;;;;;5071384;28;20186;-68
2022/03/09 10:29:28;;;;;;;26.85;16.60;;;16.30;39.00;;;;;;5072657;28;20615;-68
2022/03/09 10:31:59;;;;;;;30.98;16.83;;;15.90;40.00;;;;;;5052298;28;20311;-68
2022/03/09 10:34:26;;;;;;;;;;;15.60;40.50;;;;;;5071762;28;20059;-69
2022/03/09 10:37:02;;;;;;;;;;;15.30;40.70;;;;;;5068086;28;19908;-67
2022/03/09 10:39:34;;;;;;;28.70;16.85;;;15.00;42.30;;;;;;5069859;28;20367;-66
2022/03/09 10:42:02;;;;;;;30.05;17.08;;;14.90;42.10;;;;;;5071268;28;20174;-68
2022/03/09 10:44:48;;;;;;;32.38;16.35;;;14.80;41.90;;;;;;5070623;28;20197;-69
2022/03/09 10:47:31;;;;;;;36.22;16.67;;;14.70;42.40;;;;;;5069126;28;20213;-68
2022/03/09 10:50:15;;;;;;;31.92;17.73;;;14.60;43.20;;;;;;5070030;28;20661;-69
2022/03/09 10:53:04;;;;;;;30.85;17.10;;;14.60;43.80;;;;;;5068200;28;20273;-68
2022/03/09 10:55:30;;;;;;;31.02;17.88;;;14.50;45.10;;;;;;5043887;28;20193;-66
2022/03/09 10:58:14;;;;;;;32.70;17.30;;;14.40;46.20;;;;;;5051596;28;20670;-67
2022/03/09 11:00:40;;;;;;;31.50;17.75;;;14.30;45.30;;;;;;5067845;28;20194;-70
2022/03/09 11:03:17;;;;;;;29.85;18.02;;;14.20;45.40;;;;;;5070580;28;20175;-68
2022/03/09 11:05:57;;;;;;;31.30;17.65;;;14.10;46.80;;;;;;5054548;28;20569;-70
2022/03/09 11:08:26;;;;;;;31.65;17.17;;;14.10;46.00;;;;;;5068213;28;20251;-70
2022/03/09 11:10:54;;;;;;;30.05;18.25;;;14.10;47.00;;;;;;5068079;28;20657;-70
2022/03/09 11:13:22;;;;;;;36.97;18.30;;;14.20;47.90;;;;;;5076825;28;20186;-70
2022/03/09 11:15:48;;;;;;;29.85;17.85;;;14.20;48.60;;;;;;5063726;28;22146;-67
2022/03/09 11:18:19;;;;;;;37.75;18.38;;;14.30;48.70;;;;;;5050132;28;20678;-70
2022/03/09 11:20:50;;;;;;;30.52;17.98;;;14.30;48.30;;;;;;5062990;28;20190;-67
2022/03/09 11:23:17;;;;;;;34.33;18.38;;;14.30;48.70;;;;;;5063376;28;20248;-67
2022/03/09 11:25:50;;;;;;;34.67;18.25;;;14.30;48.80;;;;;;5066552;28;20183;-69
2022/03/09 11:28:26;;;;;;;34.20;18.77;;;14.30;47.90;;;;;;5065461;28;20209;-66
2022/03/09 11:31:02;;;;;;;35.90;19.45;;;14.40;47.50;;;;;;5062316;28;20240;-66
2022/03/09 11:33:48;;;;;;;34.80;19.23;;;14.40;47.20;;;;;;5061664;28;20272;-64
2022/03/09 11:36:29;;;;;;;33.65;18.90;;;14.40;47.90;;;;;;5065869;28;20205;-68
2022/03/09 11:39:17;;;;;;;33.70;19.42;;;14.30;49.20;;;;;;5050590;28;20240;-68
2022/03/09 11:41:44;;;;;;;34.38;19.20;;;14.30;49.00;;;;;;5066058;28;20199;-67
2022/03/09 11:44:19;;;;;;;35.28;19.02;;;14.30;49.20;;;;;;5036845;28;20277;-68
2022/03/09 11:46:57;;;;;;;36.00;18.77;;;14.30;49.60;;;;;;5063173;28;20208;-66
2022/03/09 11:49:23;;;;;;;29.85;18.73;;;14.40;48.90;;;;;;5062347;28;21327;-68
2022/03/09 11:52:05;;;;;;;32.88;18.55;;;14.40;49.40;;;;;;5049273;28;20183;-65
2022/03/09 11:54:53;;;;;;;36.45;19.17;;;14.50;50.50;;;;;;5060945;28;20193;-70
2022/03/09 11:57:19;;;;;;;39.33;19.40;;;14.50;50.70;;;;;;5067735;28;20214;-62
2022/03/09 12:00:09;;;;;;;31.00;18.73;;;14.50;50.40;;;;;;5053358;28;20218;-65
2022/03/09 12:02:47;;;;;;;32.95;19.38;;;14.50;50.70;;;;;;5064832;28;20293;-66
2022/03/09 12:05:28;;;;;;;38.85;18.95;;;14.50;50.00;;;;;;5050481;28;20181;-68
2022/03/09 12:08:11;;;;;;;36.90;20.60;;;14.50;50.00;;;;;;5067121;28;20612;-67
2022/03/09 12:10:43;;;;;;;35.55;19.42;;;14.60;50.10;;;;;;5066139;28;20230;-67
2022/03/09 12:13:25;;;;;;;31.75;18.60;;;14.60;50.90;;;;;;5060347;28;20206;-67
2022/03/09 12:16:01;;;;;;;34.78;20.33;;;14.60;50.00;;;;;;5053103;28;20197;-66
2022/03/09 12:18:41;;;;;;;36.88;19.70;;;14.70;50.70;;;;;;5047700;28;20251;-69
2022/03/09 12:21:08;;;;;;;33.83;19.40;;;14.70;50.00;;;;;;5063576;28;20245;-69
2022/03/09 12:23:35;;;;;;;36.45;20.27;;;14.70;49.40;;;;;;5032520;28;20171;-66
2022/03/09 12:26:02;;;;;;;35.65;19.77;;;14.70;49.30;;;;;;5065180;28;20179;-68
2022/03/09 12:28:35;;;;;;;33.55;18.95;;;14.70;49.30;;;;;;5045523;28;20194;-66
2022/03/09 12:31:06;;;;;;;32.80;19.08;;;14.70;49.70;;;;;;5047090;28;20571;-67
2022/03/09 12:33:36;;;;;;;34.28;19.95;;;14.70;50.40;;;;;;5064993;28;20190;-67
2022/03/09 12:36:16;;;;;;;36.20;19.60;;;14.70;50.20;;;;;;5064105;28;21374;-66
2022/03/09 12:38:47;;;;;;;38.33;19.65;;;14.80;50.00;;;;;;5071673;28;20310;-69
2022/03/09 12:41:28;;;;;;;38.60;20.30;;;14.80;49.70;;;;;;5061750;28;20215;-69